sensor_id;sensor_type;location;lat;lon;timestamp;temperature;humidity
68139;DHT22;54940;50.842;4.410;2023-05-07T00:01:57;17.90;99.90
68139;DHT22;54940;50.842;4.410;2023-05-07T00:04:22;17.90;99.90
68139;DHT22;54940;50.842;4.410;2023-05-07T00:06:50;17.90;99.90
68139;DHT22;54940;50.842;4.410;2023-05-07T00:09:16;17.70;99.90
68139;DHT22;54940;50.842;4.410;2023-05-07T00:11:42;17.70;99.90
68139;DHT22;54940;50.842;4.410;2023-05-07T00:14:07;17.80;99.90
68139;DHT22;54940;50.842;4.410;2023-05-07T00:16:33;17.60;99.90
68139;DHT22;54940;50.842;4.410;2023-05-07T00:18:59;17.60;99.90
68139;DHT22;54940;50.842;4.410;2023-05-07T00:21:25;17.60;99.90
68139;DHT22;54940;50.842;4.410;2023-05-07T00:23:52;17.70;99.90
68139;DHT22;54940;50.842;4.410;2023-05-07T00:26:18;17.70;99.90
68139;DHT22;54940;50.842;4.410;2023-05-07T00:28:46;17.70;99.90
68139;DHT22;54940;50.842;4.410;2023-05-07T00:31:12;17.70;99.90
68139;DHT22;54940;50.842;4.410;2023-05-07T00:33:38;17.60;99.90
68139;DHT22;54940;50.842;4.410;2023-05-07T00:36:04;17.60;99.90
68139;DHT22;54940;50.842;4.410;2023-05-07T00:38:30;17.70;99.90
68139;DHT22;54940;50.842;4.410;2023-05-07T00:40:55;17.60;99.90
68139;DHT22;54940;50.842;4.410;2023-05-07T00:43:21;17.60;99.90
68139;DHT22;54940;50.842;4.410;2023-05-07T00:45:47;17.60;99.90
68139;DHT22;54940;50.842;4.410;2023-05-07T00:48:13;17.70;99.90
68139;DHT22;54940;50.842;4.410;2023-05-07T00:50:39;17.70;99.90
68139;DHT22;54940;50.842;4.410;2023-05-07T00:53:07;17.70;99.90
68139;DHT22;54940;50.842;4.410;2023-05-07T00:55:33;17.60;99.90
68139;DHT22;54940;50.842;4.410;2023-05-07T00:58:01;17.70;99.90
68139;DHT22;54940;50.842;4.410;2023-05-07T01:00:26;17.70;99.90
68139;DHT22;54940;50.842;4.410;2023-05-07T01:02:52;17.70;99.90
68139;DHT22;54940;50.842;4.410;2023-05-07T01:05:19;17.80;99.90
68139;DHT22;54940;50.842;4.410;2023-05-07T01:07:46;17.80;99.90
68139;DHT22;54940;50.842;4.410;2023-05-07T01:10:12;17.70;99.90
68139;DHT22;54940;50.842;4.410;2023-05-07T01:12:39;17.70;99.90
68139;DHT22;54940;50.842;4.410;2023-05-07T01:15:06;17.60;99.90
68139;DHT22;54940;50.842;4.410;2023-05-07T01:17:37;17.60;99.90
68139;DHT22;54940;50.842;4.410;2023-05-07T01:20:06;17.50;99.90
68139;DHT22;54940;50.842;4.410;2023-05-07T01:22:34;17.50;99.90
68139;DHT22;54940;50.842;4.410;2023-05-07T01:25:03;17.50;99.90
68139;DHT22;54940;50.842;4.410;2023-05-07T01:27:29;17.50;99.90
68139;DHT22;54940;50.842;4.410;2023-05-07T01:29:55;17.50;99.90
68139;DHT22;54940;50.842;4.410;2023-05-07T01:32:35;17.50;99.90
68139;DHT22;54940;50.842;4.410;2023-05-07T01:35:05;17.50;99.90
68139;DHT22;54940;50.842;4.410;2023-05-07T01:37:32;17.50;99.90
68139;DHT22;54940;50.842;4.410;2023-05-07T01:39:58;17.60;99.90
68139;DHT22;54940;50.842;4.410;2023-05-07T01:42:24;17.50;99.90
68139;DHT22;54940;50.842;4.410;2023-05-07T01:44:52;17.60;99.90
68139;DHT22;54940;50.842;4.410;2023-05-07T01:47:18;17.60;99.90
68139;DHT22;54940;50.842;4.410;2023-05-07T01:49:44;17.60;99.90
68139;DHT22;54940;50.842;4.410;2023-05-07T01:52:10;17.60;99.90
68139;DHT22;54940;50.842;4.410;2023-05-07T01:54:37;17.70;99.90
68139;DHT22;54940;50.842;4.410;2023-05-07T01:57:02;17.60;99.90
68139;DHT22;54940;50.842;4.410;2023-05-07T01:59:28;17.60;99.90
68139;DHT22;54940;50.842;4.410;2023-05-07T02:01:54;17.60;99.90
68139;DHT22;54940;50.842;4.410;2023-05-07T02:04:21;17.50;99.90
68139;DHT22;54940;50.842;4.410;2023-05-07T02:06:50;17.40;99.90
68139;DHT22;54940;50.842;4.410;2023-05-07T02:09:18;17.40;99.90
68139;DHT22;54940;50.842;4.410;2023-05-07T02:11:44;17.40;99.90
68139;DHT22;54940;50.842;4.410;2023-05-07T02:14:12;17.40;99.90
68139;DHT22;54940;50.842;4.410;2023-05-07T02:16:37;17.40;99.90
68139;DHT22;54940;50.842;4.410;2023-05-07T02:19:05;17.40;99.90
68139;DHT22;54940;50.842;4.410;2023-05-07T02:21:31;17.40;99.90
68139;DHT22;54940;50.842;4.410;2023-05-07T02:23:56;17.40;99.90
68139;DHT22;54940;50.842;4.410;2023-05-07T02:26:22;17.40;99.90
68139;DHT22;54940;50.842;4.410;2023-05-07T02:28:51;17.40;99.90
68139;DHT22;54940;50.842;4.410;2023-05-07T02:31:19;17.40;99.90
68139;DHT22;54940;50.842;4.410;2023-05-07T02:33:44;17.40;99.90
68139;DHT22;54940;50.842;4.410;2023-05-07T02:36:11;17.40;99.90
68139;DHT22;54940;50.842;4.410;2023-05-07T02:38:37;17.40;99.90
68139;DHT22;54940;50.842;4.410;2023-05-07T02:41:03;17.40;99.90
68139;DHT22;54940;50.842;4.410;2023-05-07T02:43:29;17.40;99.90
68139;DHT22;54940;50.842;4.410;2023-05-07T02:46:06;17.30;99.90
68139;DHT22;54940;50.842;4.410;2023-05-07T02:48:32;17.20;99.90
68139;DHT22;54940;50.842;4.410;2023-05-07T02:51:02;17.20;99.90
68139;DHT22;54940;50.842;4.410;2023-05-07T02:53:28;17.20;99.90
68139;DHT22;54940;50.842;4.410;2023-05-07T02:55:59;17.20;99.90
68139;DHT22;54940;50.842;4.410;2023-05-07T02:58:24;17.20;99.90
68139;DHT22;54940;50.842;4.410;2023-05-07T03:00:53;17.20;99.90
68139;DHT22;54940;50.842;4.410;2023-05-07T03:03:22;17.20;99.90
68139;DHT22;54940;50.842;4.410;2023-05-07T03:05:50;17.20;99.90
68139;DHT22;54940;50.842;4.410;2023-05-07T03:08:15;17.20;99.90
68139;DHT22;54940;50.842;4.410;2023-05-07T03:10:41;17.10;99.90
68139;DHT22;54940;50.842;4.410;2023-05-07T03:13:07;17.10;99.90
68139;DHT22;54940;50.842;4.410;2023-05-07T03:15:35;17.10;99.90
68139;DHT22;54940;50.842;4.410;2023-05-07T03:18:03;17.10;99.90
68139;DHT22;54940;50.842;4.410;2023-05-07T03:20:28;17.10;99.90
68139;DHT22;54940;50.842;4.410;2023-05-07T03:22:55;17.10;99.90
68139;DHT22;54940;50.842;4.410;2023-05-07T03:25:21;17.10;99.90
68139;DHT22;54940;50.842;4.410;2023-05-07T03:27:46;17.10;99.90
68139;DHT22;54940;50.842;4.410;2023-05-07T03:30:12;17.00;99.90
68139;DHT22;54940;50.842;4.410;2023-05-07T03:32:38;17.00;99.90
68139;DHT22;54940;50.842;4.410;2023-05-07T03:35:04;17.10;99.90
68139;DHT22;54940;50.842;4.410;2023-05-07T03:37:30;17.10;99.90
68139;DHT22;54940;50.842;4.410;2023-05-07T03:39:55;17.10;99.90
68139;DHT22;54940;50.842;4.410;2023-05-07T03:42:23;17.00;99.90
68139;DHT22;54940;50.842;4.410;2023-05-07T03:44:49;17.00;99.90
68139;DHT22;54940;50.842;4.410;2023-05-07T03:47:14;17.00;99.90
68139;DHT22;54940;50.842;4.410;2023-05-07T03:49:40;17.00;99.90
68139;DHT22;54940;50.842;4.410;2023-05-07T03:52:06;16.90;99.90
68139;DHT22;54940;50.842;4.410;2023-05-07T03:54:32;17.00;99.90
68139;DHT22;54940;50.842;4.410;2023-05-07T03:56:58;17.00;99.90
68139;DHT22;54940;50.842;4.410;2023-05-07T03:59:23;17.00;99.90
68139;DHT22;54940;50.842;4.410;2023-05-07T04:01:51;17.00;99.90
68139;DHT22;54940;50.842;4.410;2023-05-07T04:04:17;17.00;99.90
68139;DHT22;54940;50.842;4.410;2023-05-07T04:06:44;16.90;99.90
68139;DHT22;54940;50.842;4.410;2023-05-07T04:09:10;17.00;99.90
68139;DHT22;54940;50.842;4.410;2023-05-07T04:11:38;16.90;99.90
68139;DHT22;54940;50.842;4.410;2023-05-07T04:14:06;16.90;99.90
68139;DHT22;54940;50.842;4.410;2023-05-07T04:16:35;16.90;99.90
68139;DHT22;54940;50.842;4.410;2023-05-07T04:19:00;16.80;99.90
68139;DHT22;54940;50.842;4.410;2023-05-07T04:21:26;16.80;99.90
68139;DHT22;54940;50.842;4.410;2023-05-07T04:23:52;16.80;99.90
68139;DHT22;54940;50.842;4.410;2023-05-07T04:26:17;16.80;99.90
68139;DHT22;54940;50.842;4.410;2023-05-07T04:28:43;16.90;99.90
68139;DHT22;54940;50.842;4.410;2023-05-07T04:31:09;16.90;99.90
68139;DHT22;54940;50.842;4.410;2023-05-07T04:33:34;17.00;99.90
68139;DHT22;54940;50.842;4.410;2023-05-07T04:36:03;16.90;99.90
68139;DHT22;54940;50.842;4.410;2023-05-07T04:38:30;16.90;99.90
68139;DHT22;54940;50.842;4.410;2023-05-07T04:41:03;16.90;99.90
68139;DHT22;54940;50.842;4.410;2023-05-07T04:43:29;17.00;99.90
68139;DHT22;54940;50.842;4.410;2023-05-07T04:45:54;17.00;99.90
68139;DHT22;54940;50.842;4.410;2023-05-07T04:48:20;17.00;99.90
68139;DHT22;54940;50.842;4.410;2023-05-07T04:50:52;17.00;99.90
68139;DHT22;54940;50.842;4.410;2023-05-07T04:53:18;17.00;99.90
68139;DHT22;54940;50.842;4.410;2023-05-07T04:55:44;17.20;99.90
68139;DHT22;54940;50.842;4.410;2023-05-07T04:58:12;17.30;99.90
68139;DHT22;54940;50.842;4.410;2023-05-07T05:00:39;17.60;99.90
68139;DHT22;54940;50.842;4.410;2023-05-07T05:03:08;17.60;99.90
68139;DHT22;54940;50.842;4.410;2023-05-07T05:05:34;17.50;99.90
68139;DHT22;54940;50.842;4.410;2023-05-07T05:07:59;17.50;99.90
68139;DHT22;54940;50.842;4.410;2023-05-07T05:10:25;17.50;99.90
68139;DHT22;54940;50.842;4.410;2023-05-07T05:12:51;17.40;99.90
68139;DHT22;54940;50.842;4.410;2023-05-07T05:15:17;17.40;99.90
68139;DHT22;54940;50.842;4.410;2023-05-07T05:17:42;17.40;99.90
68139;DHT22;54940;50.842;4.410;2023-05-07T05:20:10;17.40;99.90
68139;DHT22;54940;50.842;4.410;2023-05-07T05:22:37;17.40;99.90
68139;DHT22;54940;50.842;4.410;2023-05-07T05:25:05;17.50;99.90
68139;DHT22;54940;50.842;4.410;2023-05-07T05:27:30;17.50;99.90
68139;DHT22;54940;50.842;4.410;2023-05-07T05:29:56;17.60;99.90
68139;DHT22;54940;50.842;4.410;2023-05-07T05:32:22;17.60;99.90
68139;DHT22;54940;50.842;4.410;2023-05-07T05:34:47;17.60;99.90
68139;DHT22;54940;50.842;4.410;2023-05-07T05:37:13;17.60;99.90
68139;DHT22;54940;50.842;4.410;2023-05-07T05:39:41;17.70;99.90
68139;DHT22;54940;50.842;4.410;2023-05-07T05:42:07;17.60;99.90
68139;DHT22;54940;50.842;4.410;2023-05-07T05:44:33;17.60;99.90
68139;DHT22;54940;50.842;4.410;2023-05-07T05:46:59;17.60;99.90
68139;DHT22;54940;50.842;4.410;2023-05-07T05:49:25;17.60;99.90
68139;DHT22;54940;50.842;4.410;2023-05-07T05:51:53;17.60;99.90
68139;DHT22;54940;50.842;4.410;2023-05-07T05:54:19;17.60;99.90
68139;DHT22;54940;50.842;4.410;2023-05-07T05:56:44;17.60;99.90
68139;DHT22;54940;50.842;4.410;2023-05-07T05:59:13;17.60;99.90
68139;DHT22;54940;50.842;4.410;2023-05-07T06:01:41;17.60;99.90
68139;DHT22;54940;50.842;4.410;2023-05-07T06:04:07;17.70;99.90
68139;DHT22;54940;50.842;4.410;2023-05-07T06:06:32;17.70;99.90
68139;DHT22;54940;50.842;4.410;2023-05-07T06:08:58;17.60;99.90
68139;DHT22;54940;50.842;4.410;2023-05-07T06:11:24;17.50;99.90
68139;DHT22;54940;50.842;4.410;2023-05-07T06:13:50;17.50;99.90
68139;DHT22;54940;50.842;4.410;2023-05-07T06:16:18;17.40;99.90
68139;DHT22;54940;50.842;4.410;2023-05-07T06:18:46;17.20;99.90
68139;DHT22;54940;50.842;4.410;2023-05-07T06:21:14;17.20;99.90
68139;DHT22;54940;50.842;4.410;2023-05-07T06:23:40;17.10;99.90
68139;DHT22;54940;50.842;4.410;2023-05-07T06:26:06;17.10;99.90
68139;DHT22;54940;50.842;4.410;2023-05-07T06:28:32;17.10;99.90
68139;DHT22;54940;50.842;4.410;2023-05-07T06:31:13;17.20;99.90
68139;DHT22;54940;50.842;4.410;2023-05-07T06:33:39;17.10;99.90
68139;DHT22;54940;50.842;4.410;2023-05-07T06:36:05;17.20;99.90
68139;DHT22;54940;50.842;4.410;2023-05-07T06:38:33;17.10;99.90
68139;DHT22;54940;50.842;4.410;2023-05-07T06:40:59;17.00;99.90
68139;DHT22;54940;50.842;4.410;2023-05-07T06:43:25;17.10;99.90
68139;DHT22;54940;50.842;4.410;2023-05-07T06:45:50;17.20;99.90
68139;DHT22;54940;50.842;4.410;2023-05-07T06:48:16;17.20;99.90
68139;DHT22;54940;50.842;4.410;2023-05-07T06:50:42;17.20;99.90
68139;DHT22;54940;50.842;4.410;2023-05-07T06:53:07;17.10;99.90
68139;DHT22;54940;50.842;4.410;2023-05-07T06:55:33;17.10;99.90
68139;DHT22;54940;50.842;4.410;2023-05-07T06:57:58;17.10;99.90
68139;DHT22;54940;50.842;4.410;2023-05-07T07:00:27;17.10;99.90
68139;DHT22;54940;50.842;4.410;2023-05-07T07:02:54;17.20;99.90
68139;DHT22;54940;50.842;4.410;2023-05-07T07:05:20;17.10;99.90
68139;DHT22;54940;50.842;4.410;2023-05-07T07:07:46;17.10;99.90
68139;DHT22;54940;50.842;4.410;2023-05-07T07:10:27;17.10;99.90
68139;DHT22;54940;50.842;4.410;2023-05-07T07:12:52;17.00;99.90
68139;DHT22;54940;50.842;4.410;2023-05-07T07:15:19;17.00;99.90
68139;DHT22;54940;50.842;4.410;2023-05-07T07:17:45;17.00;99.90
68139;DHT22;54940;50.842;4.410;2023-05-07T07:20:11;17.10;99.90
68139;DHT22;54940;50.842;4.410;2023-05-07T07:22:39;17.20;99.90
68139;DHT22;54940;50.842;4.410;2023-05-07T07:25:05;17.20;99.90
68139;DHT22;54940;50.842;4.410;2023-05-07T07:27:31;17.20;99.90
68139;DHT22;54940;50.842;4.410;2023-05-07T07:29:56;17.20;99.90
68139;DHT22;54940;50.842;4.410;2023-05-07T07:32:22;17.10;99.90
68139;DHT22;54940;50.842;4.410;2023-05-07T07:34:51;17.20;99.90
68139;DHT22;54940;50.842;4.410;2023-05-07T07:37:16;17.30;99.90
68139;DHT22;54940;50.842;4.410;2023-05-07T07:39:42;17.20;99.90
68139;DHT22;54940;50.842;4.410;2023-05-07T07:42:07;17.20;99.90
68139;DHT22;54940;50.842;4.410;2023-05-07T07:44:33;17.10;99.90
68139;DHT22;54940;50.842;4.410;2023-05-07T07:46:59;17.20;99.90
68139;DHT22;54940;50.842;4.410;2023-05-07T07:49:25;17.20;99.90
68139;DHT22;54940;50.842;4.410;2023-05-07T07:51:50;17.20;99.90
68139;DHT22;54940;50.842;4.410;2023-05-07T07:54:16;17.20;99.90
68139;DHT22;54940;50.842;4.410;2023-05-07T07:56:42;17.30;99.90
68139;DHT22;54940;50.842;4.410;2023-05-07T07:59:10;17.30;99.90
68139;DHT22;54940;50.842;4.410;2023-05-07T08:01:35;17.30;99.90
68139;DHT22;54940;50.842;4.410;2023-05-07T08:04:01;17.40;99.90
68139;DHT22;54940;50.842;4.410;2023-05-07T08:06:29;17.30;99.90
68139;DHT22;54940;50.842;4.410;2023-05-07T08:08:55;17.30;99.90
68139;DHT22;54940;50.842;4.410;2023-05-07T08:11:20;17.40;99.90
68139;DHT22;54940;50.842;4.410;2023-05-07T08:13:47;17.50;99.90
68139;DHT22;54940;50.842;4.410;2023-05-07T08:16:13;17.50;99.90
68139;DHT22;54940;50.842;4.410;2023-05-07T08:18:39;17.60;99.90
68139;DHT22;54940;50.842;4.410;2023-05-07T08:21:04;17.60;99.90
68139;DHT22;54940;50.842;4.410;2023-05-07T08:23:30;17.60;99.90
68139;DHT22;54940;50.842;4.410;2023-05-07T08:26:00;17.60;99.90
68139;DHT22;54940;50.842;4.410;2023-05-07T08:28:26;17.50;99.90
68139;DHT22;54940;50.842;4.410;2023-05-07T08:30:54;17.60;99.90
68139;DHT22;54940;50.842;4.410;2023-05-07T08:33:19;17.60;99.90
68139;DHT22;54940;50.842;4.410;2023-05-07T08:35:45;17.60;99.90
68139;DHT22;54940;50.842;4.410;2023-05-07T08:38:13;17.60;99.90
68139;DHT22;54940;50.842;4.410;2023-05-07T08:40:39;17.50;99.90
68139;DHT22;54940;50.842;4.410;2023-05-07T08:43:06;17.40;99.90
68139;DHT22;54940;50.842;4.410;2023-05-07T08:45:33;17.30;99.90
68139;DHT22;54940;50.842;4.410;2023-05-07T08:48:02;17.50;99.90
68139;DHT22;54940;50.842;4.410;2023-05-07T08:50:30;17.50;99.90
68139;DHT22;54940;50.842;4.410;2023-05-07T08:52:56;17.50;99.90
68139;DHT22;54940;50.842;4.410;2023-05-07T08:55:24;17.30;99.90
68139;DHT22;54940;50.842;4.410;2023-05-07T08:57:50;17.50;99.90
68139;DHT22;54940;50.842;4.410;2023-05-07T09:00:18;17.60;99.90
68139;DHT22;54940;50.842;4.410;2023-05-07T09:02:43;17.60;99.90
68139;DHT22;54940;50.842;4.410;2023-05-07T09:05:09;17.70;99.90
68139;DHT22;54940;50.842;4.410;2023-05-07T09:07:35;17.70;99.90
68139;DHT22;54940;50.842;4.410;2023-05-07T09:10:04;17.80;99.90
68139;DHT22;54940;50.842;4.410;2023-05-07T09:12:30;17.90;99.90
68139;DHT22;54940;50.842;4.410;2023-05-07T09:15:00;17.90;99.90
68139;DHT22;54940;50.842;4.410;2023-05-07T09:17:28;18.00;99.90
68139;DHT22;54940;50.842;4.410;2023-05-07T09:19:54;18.10;99.90
68139;DHT22;54940;50.842;4.410;2023-05-07T09:22:20;18.10;99.90
68139;DHT22;54940;50.842;4.410;2023-05-07T09:24:50;18.10;99.90
68139;DHT22;54940;50.842;4.410;2023-05-07T09:27:16;18.10;99.90
68139;DHT22;54940;50.842;4.410;2023-05-07T09:29:44;18.20;99.90
68139;DHT22;54940;50.842;4.410;2023-05-07T09:32:10;18.30;99.90
68139;DHT22;54940;50.842;4.410;2023-05-07T09:34:36;18.30;99.90
68139;DHT22;54940;50.842;4.410;2023-05-07T09:37:03;18.20;99.90
68139;DHT22;54940;50.842;4.410;2023-05-07T09:39:44;18.20;99.90
68139;DHT22;54940;50.842;4.410;2023-05-07T09:42:11;18.30;99.90
68139;DHT22;54940;50.842;4.410;2023-05-07T09:44:45;18.30;99.90
68139;DHT22;54940;50.842;4.410;2023-05-07T09:47:19;18.20;99.90
68139;DHT22;54940;50.842;4.410;2023-05-07T09:49:47;18.30;99.90
68139;DHT22;54940;50.842;4.410;2023-05-07T09:52:18;18.30;99.90
68139;DHT22;54940;50.842;4.410;2023-05-07T09:54:47;18.30;99.90
68139;DHT22;54940;50.842;4.410;2023-05-07T09:57:15;18.30;99.90
68139;DHT22;54940;50.842;4.410;2023-05-07T09:59:43;18.30;99.90
68139;DHT22;54940;50.842;4.410;2023-05-07T10:02:10;18.30;99.90
68139;DHT22;54940;50.842;4.410;2023-05-07T10:04:37;18.20;99.90
68139;DHT22;54940;50.842;4.410;2023-05-07T10:07:03;18.30;99.90
68139;DHT22;54940;50.842;4.410;2023-05-07T10:09:30;18.30;99.90
68139;DHT22;54940;50.842;4.410;2023-05-07T10:11:57;18.40;99.90
68139;DHT22;54940;50.842;4.410;2023-05-07T10:14:24;18.40;99.90
68139;DHT22;54940;50.842;4.410;2023-05-07T10:16:53;18.30;99.90
68139;DHT22;54940;50.842;4.410;2023-05-07T10:19:19;18.30;99.90
68139;DHT22;54940;50.842;4.410;2023-05-07T10:21:55;18.40;99.90
68139;DHT22;54940;50.842;4.410;2023-05-07T10:24:27;18.50;99.90
68139;DHT22;54940;50.842;4.410;2023-05-07T10:26:55;18.60;99.90
68139;DHT22;54940;50.842;4.410;2023-05-07T10:34:36;18.60;99.90
68139;DHT22;54940;50.842;4.410;2023-05-07T10:37:03;18.60;99.90
68139;DHT22;54940;50.842;4.410;2023-05-07T10:39:29;18.60;99.90
68139;DHT22;54940;50.842;4.410;2023-05-07T10:42:08;18.70;99.90
68139;DHT22;54940;50.842;4.410;2023-05-07T10:44:34;18.70;99.90
68139;DHT22;54940;50.842;4.410;2023-05-07T10:47:05;18.60;99.90
68139;DHT22;54940;50.842;4.410;2023-05-07T10:49:31;18.80;99.90
68139;DHT22;54940;50.842;4.410;2023-05-07T10:52:20;18.80;99.90
68139;DHT22;54940;50.842;4.410;2023-05-07T10:54:45;18.80;99.90
68139;DHT22;54940;50.842;4.410;2023-05-07T10:57:44;18.90;99.90
68139;DHT22;54940;50.842;4.410;2023-05-07T11:05:30;18.90;99.90
68139;DHT22;54940;50.842;4.410;2023-05-07T11:07:56;19.00;99.90
68139;DHT22;54940;50.842;4.410;2023-05-07T11:10:23;19.00;99.90
68139;DHT22;54940;50.842;4.410;2023-05-07T11:12:52;18.90;99.90
68139;DHT22;54940;50.842;4.410;2023-05-07T11:15:38;18.90;99.90
68139;DHT22;54940;50.842;4.410;2023-05-07T11:18:04;18.80;99.90
68139;DHT22;54940;50.842;4.410;2023-05-07T11:20:55;18.70;99.90
68139;DHT22;54940;50.842;4.410;2023-05-07T11:26:06;18.80;99.90
68139;DHT22;54940;50.842;4.410;2023-05-07T11:28:41;18.90;99.90
68139;DHT22;54940;50.842;4.410;2023-05-07T11:31:07;18.80;99.90
68139;DHT22;54940;50.842;4.410;2023-05-07T11:33:33;18.70;99.90
68139;DHT22;54940;50.842;4.410;2023-05-07T11:36:00;18.60;99.90
68139;DHT22;54940;50.842;4.410;2023-05-07T11:38:28;18.50;99.90
68139;DHT22;54940;50.842;4.410;2023-05-07T11:40:57;18.60;99.90
68139;DHT22;54940;50.842;4.410;2023-05-07T11:43:24;18.60;99.90
68139;DHT22;54940;50.842;4.410;2023-05-07T11:45:50;18.80;99.90
68139;DHT22;54940;50.842;4.410;2023-05-07T11:48:16;18.90;99.90
68139;DHT22;54940;50.842;4.410;2023-05-07T11:50:52;18.80;99.90
68139;DHT22;54940;50.842;4.410;2023-05-07T11:53:24;18.80;99.90
68139;DHT22;54940;50.842;4.410;2023-05-07T11:55:55;18.80;99.90
68139;DHT22;54940;50.842;4.410;2023-05-07T11:58:22;18.90;99.90
68139;DHT22;54940;50.842;4.410;2023-05-07T12:00:53;18.80;99.90
68139;DHT22;54940;50.842;4.410;2023-05-07T12:03:21;19.00;99.90
68139;DHT22;54940;50.842;4.410;2023-05-07T12:05:49;19.10;99.90
68139;DHT22;54940;50.842;4.410;2023-05-07T12:08:18;19.10;99.90
68139;DHT22;54940;50.842;4.410;2023-05-07T12:10:49;19.20;99.90
68139;DHT22;54940;50.842;4.410;2023-05-07T12:13:25;19.20;99.90
68139;DHT22;54940;50.842;4.410;2023-05-07T12:15:57;19.20;99.90
68139;DHT22;54940;50.842;4.410;2023-05-07T12:18:23;19.00;99.90
68139;DHT22;54940;50.842;4.410;2023-05-07T12:20:50;19.00;99.90
68139;DHT22;54940;50.842;4.410;2023-05-07T12:23:16;19.00;99.90
68139;DHT22;54940;50.842;4.410;2023-05-07T12:25:43;19.00;99.90
68139;DHT22;54940;50.842;4.410;2023-05-07T12:28:13;19.20;99.90
68139;DHT22;54940;50.842;4.410;2023-05-07T12:30:41;19.30;99.90
68139;DHT22;54940;50.842;4.410;2023-05-07T12:33:07;19.30;99.90
68139;DHT22;54940;50.842;4.410;2023-05-07T12:35:41;19.40;99.90
68139;DHT22;54940;50.842;4.410;2023-05-07T12:38:12;19.30;99.90
68139;DHT22;54940;50.842;4.410;2023-05-07T12:40:49;19.30;99.90
68139;DHT22;54940;50.842;4.410;2023-05-07T12:45:46;19.10;99.90
68139;DHT22;54940;50.842;4.410;2023-05-07T12:48:16;19.20;99.90
68139;DHT22;54940;50.842;4.410;2023-05-07T12:50:41;19.10;99.90
68139;DHT22;54940;50.842;4.410;2023-05-07T12:53:10;19.10;99.90
68139;DHT22;54940;50.842;4.410;2023-05-07T12:55:44;19.00;99.90
68139;DHT22;54940;50.842;4.410;2023-05-07T12:58:33;19.00;99.90
68139;DHT22;54940;50.842;4.410;2023-05-07T13:01:04;19.10;99.90
68139;DHT22;54940;50.842;4.410;2023-05-07T13:03:34;19.10;99.90
68139;DHT22;54940;50.842;4.410;2023-05-07T13:06:05;19.10;99.90
68139;DHT22;54940;50.842;4.410;2023-05-07T13:08:36;19.10;99.90
68139;DHT22;54940;50.842;4.410;2023-05-07T13:11:09;19.20;99.90
68139;DHT22;54940;50.842;4.410;2023-05-07T13:13:37;19.20;99.90
68139;DHT22;54940;50.842;4.410;2023-05-07T13:16:05;19.30;99.90
68139;DHT22;54940;50.842;4.410;2023-05-07T13:18:34;19.30;99.90
68139;DHT22;54940;50.842;4.410;2023-05-07T13:21:00;19.30;99.90
68139;DHT22;54940;50.842;4.410;2023-05-07T13:23:26;19.30;99.90
68139;DHT22;54940;50.842;4.410;2023-05-07T13:25:52;19.20;99.90
68139;DHT22;54940;50.842;4.410;2023-05-07T13:28:19;19.20;99.90
68139;DHT22;54940;50.842;4.410;2023-05-07T13:30:46;19.20;99.90
68139;DHT22;54940;50.842;4.410;2023-05-07T13:33:12;19.30;99.90
68139;DHT22;54940;50.842;4.410;2023-05-07T13:35:38;19.20;99.90
68139;DHT22;54940;50.842;4.410;2023-05-07T13:38:04;19.30;99.90
68139;DHT22;54940;50.842;4.410;2023-05-07T13:40:30;19.30;99.90
68139;DHT22;54940;50.842;4.410;2023-05-07T13:42:59;19.30;99.90
68139;DHT22;54940;50.842;4.410;2023-05-07T13:45:27;19.30;99.90
68139;DHT22;54940;50.842;4.410;2023-05-07T13:47:55;19.30;99.90
68139;DHT22;54940;50.842;4.410;2023-05-07T13:50:23;19.30;99.90
68139;DHT22;54940;50.842;4.410;2023-05-07T13:52:49;19.40;99.90
68139;DHT22;54940;50.842;4.410;2023-05-07T13:55:22;19.40;99.90
68139;DHT22;54940;50.842;4.410;2023-05-07T13:58:01;19.50;99.90
68139;DHT22;54940;50.842;4.410;2023-05-07T14:00:29;19.40;99.90
68139;DHT22;54940;50.842;4.410;2023-05-07T14:02:56;19.40;99.90
68139;DHT22;54940;50.842;4.410;2023-05-07T14:05:22;19.50;99.90
68139;DHT22;54940;50.842;4.410;2023-05-07T14:07:57;19.50;99.90
68139;DHT22;54940;50.842;4.410;2023-05-07T14:10:23;19.40;99.90
68139;DHT22;54940;50.842;4.410;2023-05-07T14:12:48;19.30;99.90
68139;DHT22;54940;50.842;4.410;2023-05-07T14:15:15;19.30;99.90
68139;DHT22;54940;50.842;4.410;2023-05-07T14:17:41;19.30;99.90
68139;DHT22;54940;50.842;4.410;2023-05-07T14:20:08;19.20;99.90
68139;DHT22;54940;50.842;4.410;2023-05-07T14:22:34;19.20;99.90
68139;DHT22;54940;50.842;4.410;2023-05-07T14:24:59;19.20;99.90
68139;DHT22;54940;50.842;4.410;2023-05-07T14:27:27;19.30;99.90
68139;DHT22;54940;50.842;4.410;2023-05-07T14:29:53;19.20;99.90
68139;DHT22;54940;50.842;4.410;2023-05-07T14:32:19;19.30;99.90
68139;DHT22;54940;50.842;4.410;2023-05-07T14:34:45;19.30;99.90
68139;DHT22;54940;50.842;4.410;2023-05-07T14:37:11;19.50;99.90
68139;DHT22;54940;50.842;4.410;2023-05-07T14:39:37;19.50;99.90
68139;DHT22;54940;50.842;4.410;2023-05-07T14:42:02;19.40;99.90
68139;DHT22;54940;50.842;4.410;2023-05-07T14:44:30;19.30;99.90
68139;DHT22;54940;50.842;4.410;2023-05-07T14:46:56;19.30;99.90
68139;DHT22;54940;50.842;4.410;2023-05-07T14:49:22;19.40;99.90
68139;DHT22;54940;50.842;4.410;2023-05-07T14:51:49;19.30;99.90
68139;DHT22;54940;50.842;4.410;2023-05-07T14:54:15;19.40;99.90
68139;DHT22;54940;50.842;4.410;2023-05-07T14:56:40;19.40;99.90
68139;DHT22;54940;50.842;4.410;2023-05-07T14:59:08;19.30;99.90
68139;DHT22;54940;50.842;4.410;2023-05-07T15:01:35;19.30;99.90
68139;DHT22;54940;50.842;4.410;2023-05-07T15:04:03;19.20;99.90
68139;DHT22;54940;50.842;4.410;2023-05-07T15:06:29;19.10;99.90
68139;DHT22;54940;50.842;4.410;2023-05-07T15:08:55;19.20;99.90
68139;DHT22;54940;50.842;4.410;2023-05-07T15:11:21;19.20;99.90
68139;DHT22;54940;50.842;4.410;2023-05-07T15:13:49;19.20;99.90
68139;DHT22;54940;50.842;4.410;2023-05-07T15:16:15;19.20;99.90
68139;DHT22;54940;50.842;4.410;2023-05-07T15:18:40;19.30;99.90
68139;DHT22;54940;50.842;4.410;2023-05-07T15:21:06;19.30;99.90
68139;DHT22;54940;50.842;4.410;2023-05-07T15:23:32;19.20;99.90
68139;DHT22;54940;50.842;4.410;2023-05-07T15:25:58;19.20;99.90
68139;DHT22;54940;50.842;4.410;2023-05-07T15:28:26;19.10;99.90
68139;DHT22;54940;50.842;4.410;2023-05-07T15:30:55;19.20;99.90
68139;DHT22;54940;50.842;4.410;2023-05-07T15:33:21;19.30;99.90
68139;DHT22;54940;50.842;4.410;2023-05-07T15:35:46;19.30;99.90
68139;DHT22;54940;50.842;4.410;2023-05-07T15:38:12;19.40;99.90
68139;DHT22;54940;50.842;4.410;2023-05-07T15:40:40;19.30;99.90
68139;DHT22;54940;50.842;4.410;2023-05-07T15:43:11;19.20;99.90
68139;DHT22;54940;50.842;4.410;2023-05-07T15:45:41;19.30;99.90
68139;DHT22;54940;50.842;4.410;2023-05-07T15:48:10;19.20;99.90